createdAt,value
2019-06-08T00:00:03.165Z,1009.09
2019-06-08T00:05:03.347Z,1009.13
2019-06-08T00:10:02.912Z,1009.1
2019-06-08T00:15:03.556Z,1009.16
2019-06-08T00:20:03.003Z,1009.24
2019-06-08T00:25:02.642Z,1009.21
2019-06-08T00:30:03.308Z,1009.26
2019-06-08T00:35:02.867Z,1009.15
2019-06-08T00:40:03.319Z,1009.27
2019-06-08T00:45:02.957Z,1009.3
2019-06-08T00:50:02.462Z,1009.31
2019-06-08T00:55:03.018Z,1009.33
2019-06-08T01:00:10.199Z,1009.32
2019-06-08T01:05:02.762Z,1009.2
2019-06-08T01:10:03.310Z,1009.35
2019-06-08T01:15:03.046Z,1009.35
2019-06-08T01:20:02.664Z,1009.37
2019-06-08T01:25:03.254Z,1009.42
2019-06-08T01:30:02.836Z,1009.42
2019-06-08T01:35:03.374Z,1009.45
2019-06-08T01:40:02.889Z,1009.47
2019-06-08T01:45:03.739Z,1009.43
2019-06-08T01:50:03.374Z,1009.49
2019-06-08T01:55:02.827Z,1009.54
2019-06-08T02:00:28.806Z,1009.64
2019-06-08T02:05:02.541Z,1009.58
2019-06-08T02:10:02.997Z,1009.68
2019-06-08T02:15:02.627Z,1009.65
2019-06-08T02:20:03.209Z,1009.57
2019-06-08T02:25:02.680Z,1009.67
2019-06-08T02:30:03.255Z,1009.67
2019-06-08T02:35:02.731Z,1009.64
2019-06-08T02:40:03.186Z,1009.68
2019-06-08T02:45:02.638Z,1009.74
2019-06-08T02:50:03.095Z,1009.85
2019-06-08T02:55:02.554Z,1009.82
2019-06-08T03:00:03.022Z,1009.76
2019-06-08T03:05:02.481Z,1009.81
2019-06-08T03:10:02.944Z,1009.83
2019-06-08T03:15:02.557Z,1009.92
2019-06-08T03:20:03.010Z,1009.99
2019-06-08T03:25:02.474Z,1010.03
2019-06-08T03:30:16.714Z,1010.16
2019-06-08T03:35:03.435Z,1010.24
2019-06-08T03:40:02.898Z,1010.28
2019-06-08T03:45:03.362Z,1010.42
2019-06-08T03:50:02.809Z,1010.42
2019-06-08T03:55:03.257Z,1010.47
2019-06-08T04:00:12.605Z,1010.43
2019-06-08T04:05:03.071Z,1010.45
2019-06-08T04:10:02.523Z,1010.51
2019-06-08T04:15:03.087Z,1010.54
2019-06-08T04:20:10.075Z,1010.49
2019-06-08T04:25:02.928Z,1010.63
2019-06-08T04:30:03.373Z,1010.56
2019-06-08T04:35:02.844Z,1010.78
2019-06-08T04:40:03.316Z,1010.77
2019-06-08T04:45:02.813Z,1010.8
2019-06-08T04:50:20.764Z,1010.78
2019-06-08T04:55:02.597Z,1010.75
2019-06-08T05:00:11.904Z,1011.04
2019-06-08T05:05:03.267Z,1011.29
2019-06-08T05:10:02.784Z,1011.18
2019-06-08T05:15:03.366Z,1011.27
2019-06-08T05:20:02.824Z,1011.24
2019-06-08T05:25:03.386Z,1011.29
2019-06-08T05:30:08.326Z,1011.4
2019-06-08T05:35:02.616Z,1011.34
2019-06-08T05:40:03.205Z,1011.4
2019-06-08T05:45:02.790Z,1011.46
2019-06-08T05:50:02.557Z,1011.47
2019-06-08T05:55:03.059Z,1011.56
2019-06-08T06:00:08.815Z,1011.66
2019-06-08T06:05:02.878Z,1011.66
2019-06-08T06:10:03.374Z,1011.86
2019-06-08T06:15:02.824Z,1011.83
2019-06-08T06:20:03.314Z,1012.05
2019-06-08T06:25:02.889Z,1012.08
2019-06-08T06:30:03.554Z,1012.1
2019-06-08T06:35:02.996Z,1012.22
2019-06-08T06:40:02.467Z,1012.38
2019-06-08T06:45:03.090Z,1012.42
2019-06-08T06:50:02.564Z,1012.48
2019-06-08T06:55:03.154Z,1012.67
2019-06-08T07:00:02.672Z,1012.66
2019-06-08T07:05:03.294Z,1012.76
2019-06-08T07:10:02.836Z,1012.91
2019-06-08T07:15:03.263Z,1012.86
2019-06-08T07:20:02.715Z,1013.15
2019-06-08T07:25:03.262Z,1013.2
2019-06-08T07:30:02.864Z,1013.24
2019-06-08T07:35:03.531Z,1013.34
2019-06-08T07:40:03.039Z,1013.41
2019-06-08T07:45:02.665Z,1013.47
2019-06-08T07:50:04.714Z,1013.54
2019-06-08T07:55:03.496Z,1013.77
2019-06-08T08:00:09.242Z,1013.87
2019-06-08T08:05:03.326Z,1013.86
2019-06-08T08:10:02.951Z,1013.82
2019-06-08T08:15:02.556Z,1013.93
2019-06-08T08:20:03.113Z,1013.95
2019-06-08T08:25:04.730Z,1014.09
2019-06-08T08:30:02.692Z,1014.06
2019-06-08T08:35:03.254Z,1014.05
2019-06-08T08:40:02.721Z,1014.08
2019-06-08T08:45:05.504Z,1014.07
2019-06-08T08:50:03.028Z,1014.2
2019-06-08T08:55:02.509Z,1014.2
2019-06-08T09:00:04.753Z,1014.24
2019-06-08T09:05:03.716Z,1014.41
2019-06-08T09:10:03.726Z,1014.42
2019-06-08T09:15:03.886Z,1014.52
2019-06-08T09:20:03.773Z,1014.54
2019-06-08T09:25:04.281Z,1014.63
2019-06-08T09:30:04.711Z,1014.69
2019-06-08T09:35:04.791Z,1014.77
2019-06-08T09:40:03.746Z,1014.84
2019-06-08T09:45:05.411Z,1014.9
2019-06-08T09:50:04.550Z,1015.02
2019-06-08T09:55:05.805Z,1014.91
2019-06-08T10:00:13.981Z,1014.97
2019-06-08T10:05:04.461Z,1014.96
2019-06-08T10:10:04.199Z,1014.95
2019-06-08T10:15:04.654Z,1014.99
2019-06-08T10:20:04.583Z,1014.86
2019-06-08T10:25:05.601Z,1015.18
2019-06-08T10:30:05.822Z,1015.35
2019-06-08T10:35:05.339Z,1015.43
2019-06-08T10:40:05.191Z,1015.26
2019-06-08T10:45:08.048Z,1015.47
2019-06-08T10:50:07.001Z,1015.46
2019-06-08T10:55:04.660Z,1015.58
2019-06-08T11:00:12.368Z,1015.8
2019-06-08T11:05:05.832Z,1015.86
2019-06-08T11:10:03.943Z,1015.92
2019-06-08T11:15:03.557Z,1016.12
2019-06-08T11:20:04.418Z,1016.43
2019-06-08T11:25:03.778Z,1016.33
2019-06-08T11:30:10.820Z,1016.47
2019-06-08T11:35:04.073Z,1016.56
2019-06-08T11:40:04.444Z,1016.52
2019-06-08T11:45:04.432Z,1016.74
2019-06-08T11:50:04.486Z,1016.69
2019-06-08T11:55:04.135Z,1016.68
2019-06-08T12:00:10.944Z,1016.71
2019-06-08T12:05:03.755Z,1016.5
2019-06-08T12:10:04.465Z,1016.45
2019-06-08T12:15:03.080Z,1016.32
2019-06-08T12:20:03.385Z,1016.23
2019-06-08T12:25:03.886Z,1016.29
2019-06-08T12:30:09.034Z,1016.4
2019-06-08T12:35:03.125Z,1016.41
2019-06-08T12:40:02.642Z,1016.42
2019-06-08T12:45:03.131Z,1016.66
2019-06-08T12:50:02.654Z,1016.79
2019-06-08T12:55:06.603Z,1016.77
2019-06-08T13:00:03.333Z,1016.69
2019-06-08T13:05:02.858Z,1016.75
2019-06-08T13:10:03.500Z,1016.77
2019-06-08T13:15:03.013Z,1016.6
2019-06-08T13:20:02.536Z,1016.61
2019-06-08T13:25:15.799Z,1016.61
2019-06-08T13:30:03.120Z,1016.6
2019-06-08T13:35:02.647Z,1016.83
2019-06-08T13:40:03.192Z,1016.75
2019-06-08T13:45:01.937Z,1016.88
2019-06-08T13:50:03.490Z,1016.89
2019-06-08T13:55:02.966Z,1016.83
2019-06-08T14:00:02.424Z,1016.84
2019-06-08T14:05:02.868Z,1016.9
2019-06-08T14:10:03.534Z,1016.94
2019-06-08T14:15:03.092Z,1017.0
2019-06-08T14:20:02.557Z,1017.02
2019-06-08T14:25:03.169Z,1017.2
2019-06-08T14:30:02.615Z,1017.6
2019-06-08T14:35:03.235Z,1017.56
2019-06-08T14:40:02.713Z,1017.42
2019-06-08T14:45:03.217Z,1017.59
2019-06-08T14:50:02.667Z,1018.05
2019-06-08T14:55:03.253Z,1018.3
2019-06-08T15:00:08.657Z,1018.16
2019-06-08T15:05:03.235Z,1018.16
2019-06-08T15:10:02.795Z,1018.05
2019-06-08T15:15:03.297Z,1018.11
2019-06-08T15:20:02.839Z,1018.16
2019-06-08T15:25:03.355Z,1018.29
2019-06-08T15:30:02.799Z,1018.37
2019-06-08T15:35:03.358Z,1018.48
2019-06-08T15:40:02.839Z,1018.41
2019-06-08T15:45:03.524Z,1018.88
2019-06-08T15:50:02.956Z,1018.55
2019-06-08T15:55:03.548Z,1018.56
2019-06-08T16:00:03.005Z,1018.58
2019-06-08T16:05:02.466Z,1018.5
2019-06-08T16:10:02.967Z,1018.57
2019-06-08T16:15:02.571Z,1018.61
2019-06-08T16:20:03.165Z,1018.5
2019-06-08T16:25:02.728Z,1018.69
2019-06-08T16:30:09.360Z,1018.58
2019-06-08T16:35:02.611Z,1018.51
2019-06-08T16:40:03.409Z,1018.57
2019-06-08T16:45:02.955Z,1018.59
2019-06-08T16:50:03.508Z,1018.63
2019-06-08T16:55:03.027Z,1018.66
2019-06-08T17:00:29.885Z,1018.69
2019-06-08T17:05:02.905Z,1018.81
2019-06-08T17:10:03.450Z,1018.86
2019-06-08T17:15:02.981Z,1018.85
2019-06-08T17:20:04.705Z,1018.9
2019-06-08T17:25:02.618Z,1019.08
2019-06-08T17:30:08.388Z,1019.12
2019-06-08T17:35:03.417Z,1019.17
2019-06-08T17:40:02.917Z,1019.19
2019-06-08T17:45:03.502Z,1019.22
2019-06-08T17:50:02.966Z,1019.16
2019-06-08T17:55:02.448Z,1019.12
2019-06-08T18:00:03.501Z,1019.16
2019-06-08T18:05:03.169Z,1019.2
2019-06-08T18:10:02.707Z,1019.17
2019-06-08T18:15:03.251Z,1019.23
2019-06-08T18:20:02.771Z,1019.21
2019-06-08T18:25:03.364Z,1019.26
2019-06-08T18:30:08.339Z,1019.19
2019-06-08T18:35:03.122Z,1019.33
2019-06-08T18:40:02.595Z,1019.35
2019-06-08T18:45:03.168Z,1019.41
2019-06-08T18:50:02.765Z,1019.41
2019-06-08T18:55:03.618Z,1019.51
2019-06-08T19:00:08.348Z,1019.55
2019-06-08T19:05:02.480Z,1019.68
2019-06-08T19:10:02.221Z,1019.7
2019-06-08T19:15:02.737Z,1019.73
2019-06-08T19:20:03.273Z,1019.77
2019-06-08T19:25:02.828Z,1019.79
2019-06-08T19:30:03.341Z,1019.81
2019-06-08T19:35:02.922Z,1020.0
2019-06-08T19:40:03.725Z,1020.0
2019-06-08T19:45:05.449Z,1020.17
2019-06-08T19:50:02.436Z,1020.14
2019-06-08T19:55:02.843Z,1020.29
2019-06-08T20:00:03.314Z,1020.4
2019-06-08T20:05:02.794Z,1020.47
2019-06-08T20:10:03.231Z,1020.55
2019-06-08T20:15:02.712Z,1020.69
2019-06-08T20:20:03.288Z,1020.86
2019-06-08T20:25:02.777Z,1020.87
2019-06-08T20:30:08.812Z,1020.98
2019-06-08T20:35:02.480Z,1021.07
2019-06-08T20:40:10.237Z,1021.17
2019-06-08T20:45:03.322Z,1021.23
2019-06-08T20:50:02.855Z,1021.25
2019-06-08T20:55:03.398Z,1021.38
2019-06-08T21:00:08.347Z,1021.4
2019-06-08T21:05:02.954Z,1021.4
2019-06-08T21:10:02.423Z,1021.39
2019-06-08T21:15:02.923Z,1021.45
2019-06-08T21:20:03.456Z,1021.51
2019-06-08T21:25:02.929Z,1021.49
2019-06-08T21:30:08.624Z,1021.57
2019-06-08T21:35:03.463Z,1021.58
2019-06-08T21:40:04.365Z,1021.64
2019-06-08T21:45:06.177Z,1021.66
2019-06-08T21:50:02.500Z,1021.71
2019-06-08T21:55:02.952Z,1021.74
2019-06-08T22:00:19.472Z,1021.73
2019-06-08T22:05:04.658Z,1021.78
2019-06-08T22:10:03.311Z,1021.82
2019-06-08T22:15:03.157Z,1021.81
2019-06-08T22:20:03.421Z,1021.86
2019-06-08T22:25:03.677Z,1021.94
2019-06-08T22:30:09.743Z,1021.89
2019-06-08T22:35:03.579Z,1021.94
2019-06-08T22:40:03.622Z,1021.96
2019-06-08T22:45:03.929Z,1021.98
2019-06-08T22:50:03.698Z,1022.08
2019-06-08T22:55:07.026Z,1021.99
2019-06-08T23:00:14.566Z,1022.06
2019-06-08T23:05:04.180Z,1022.11
2019-06-08T23:10:04.696Z,1022.09
2019-06-08T23:15:03.868Z,1022.15
2019-06-08T23:20:03.580Z,1022.16
2019-06-08T23:25:04.397Z,1022.14
2019-06-08T23:30:03.805Z,1022.22
2019-06-08T23:35:02.966Z,1022.18
2019-06-08T23:40:03.772Z,1022.16
2019-06-08T23:45:03.831Z,1022.04
2019-06-08T23:50:09.078Z,1022.14
2019-06-08T23:55:04.270Z,1022.16
